KSOP/SOP METAR and TAF weather

Enter ICAO airport designator
Station Type Date Time Source
KSOP METAR 2018/12/10 01:56 UTC NOAA

KSOP 100156Z AUTO 02008KT 6SM UP BR OVC006 02/02 A2996 RMK AO2 CIG 004V009 SLPNO P0001 T00170017 FZRANO


Station Type Date Time Source
KSOP Decoded METAR 2018/12/10 01:56 UTC NOAA

Pinehurst/Southern Pines, Moore County Airport, NC, United States (KSOP) 35-14N 079-24W
Dec 09, 2018 - 08:56 PM EST / 2018.12.10 0156 UTC
Wind: from the NNE (020 degrees) at 9 MPH (8 KT):0
Visibility: 6 mile(s):0
Sky conditions: overcast
Weather: precipitation; mist
Precipitation last hour: 0.01 inches
Temperature: 35.1 F (1.7 C)
Dew Point: 35.1 F (1.7 C)
Relative Humidity: 100%
Pressure (altimeter): 29.96 in. Hg (1014 hPa)
ob: KSOP 100156Z AUTO 02008KT 6SM UP BR OVC006 02/02 A2996 RMK AO2 CIG 004V009 SLPNO P0001 T00170017 FZRANO
cycle: 2

Station Type Date Time Source
KSOP TAF UTC NOAA

Error!


Example: see airport list